| time (UTC) | temp C | wind direction | speed KPH | gust KPH | rain 1hr cm | rain 24hr cm | rain mn cm | humidity % | barometer mb |
| 20260507184503 | 12 | 260 | 12.9 | 40.2 | 0.05 | 0.15 | 0.15 | 88 | 1012.5 |
| 20260507183002 | 12 | 240 | 16.1 | 33.8 | 0.10 | 0.15 | 0.15 | 88 | 1012.3 |
| 20260507181600 | 12 | 265 | 11.3 | 33.8 | 0.10 | 0.15 | 0.15 | 88 | 1012.3 |
| 20260507180107 | 13 | 254 | 22.5 | 41.8 | 0.10 | 0.13 | 0.13 | 87 | 1012.2 |
| 20260507174627 | 13 | 250 | 11.3 | 45.1 | 0.10 | 0.10 | 0.10 | 86 | 1012.3 |
| 20260507173052 | 13 | 261 | 20.9 | 43.5 | 0.05 | 0.05 | 0.05 | 84 | 1012.2 |
| 20260507171603 | 15 | 240 | 17.7 | 38.6 | 0.05 | 0.05 | 0.05 | 81 | 1011.9 |
| 20260507170046 | 15 | 235 | 1.6 | 22.5 | 0.03 | 0.03 | 0.03 | 76 | 1011.8 |
| 20260507164551 | 16 | 269 | 0.0 | 0.0 | 0.00 | 0.00 | 0.00 | 71 | 1011.7 |
| 20260507163043 | 16 | 271 | 12.9 | 37.0 | 0.00 | 0.00 | 0.00 | 66 | 1011.5 |
| 20260507161547 | 17 | 267 | 11.3 | 43.5 | 0.00 | 0.00 | 0.00 | 64 | 1011.1 |
| 20260507160108 | 17 | 270 | 24.1 | 53.1 | 0.00 | 0.00 | 0.00 | 61 | 1011.0 |
| 20260507154540 | 18 | 274 | 12.9 | 35.4 | 0.00 | 0.00 | 0.00 | 56 | 1010.7 |
| 20260507153039 | 18 | 257 | 8.0 | 32.2 | 0.00 | 0.00 | 0.00 | 55 | 1010.5 |
| 20260507151539 | 18 | 262 | 11.3 | 30.6 | 0.00 | 0.00 | 0.00 | 54 | 1010.5 |
| 20260507150039 | 20 | 240 | 4.8 | 22.5 | 0.00 | 0.00 | 0.00 | 51 | 1010.4 |
| 20260507144538 | 20 | 240 | 0.0 | 8.0 | 0.00 | 0.00 | 0.00 | 49 | 1010.4 |
| 20260507143037 | 20 | 240 | 1.6 | 19.3 | 0.00 | 0.00 | 0.00 | 50 | 1010.4 |
| 20260507141537 | 21 | 240 | 3.2 | 22.5 | 0.00 | 0.00 | 0.00 | 49 | 1010.5 |
| 20260507140044 | 20 | 196 | 4.8 | 24.1 | 0.00 | 0.00 | 0.00 | 51 | 1010.4 |
| 20260507134533 | 20 | 230 | 0.0 | 14.5 | 0.00 | 0.00 | 0.00 | 51 | 1010.5 |
| 20260507133034 | 20 | 269 | 6.4 | 30.6 | 0.00 | 0.00 | 0.00 | 51 | 1010.6 |
| 20260507131603 | 20 | 317 | 9.7 | 22.5 | 0.00 | 0.00 | 0.00 | 49 | 1010.7 |
| 20260507130031 | 20 | 340 | 0.0 | 11.3 | 0.00 | 0.00 | 0.00 | 49 | 1010.7 |
| 20260507124532 | 20 | 340 | 0.0 | 16.1 | 0.00 | 0.00 | 0.00 | 49 | 1010.8 |
| 20260507123040 | 20 | 340 | 0.0 | 8.0 | 0.00 | 0.00 | 0.00 | 48 | 1010.8 |
| 20260507121527 | 20 | 347 | 1.6 | 22.5 | 0.00 | 0.00 | 0.00 | 51 | 1010.8 |
| 20260507120030 | 19 | 354 | 8.0 | 30.6 | 0.00 | 0.00 | 0.00 | 51 | 1011.1 |
| 20260507114525 | 18 | 291 | 20.9 | 43.5 | 0.00 | 0.00 | 0.00 | 53 | 1011.0 |
| 20260507113054 | 18 | 316 | 17.7 | 43.5 | 0.00 | 0.00 | 0.00 | 52 | 1011.0 |
| 20260507111525 | 18 | 323 | 16.1 | 41.8 | 0.00 | 0.00 | 0.00 | 53 | 1011.1 |
| 20260507110019 | 18 | 350 | 9.7 | 30.6 | 0.00 | 0.00 | 0.00 | 53 | 1011.2 |
| 20260507104519 | 18 | 338 | 12.9 | 37.0 | 0.00 | 0.00 | 0.00 | 54 | 1011.4 |
| 20260507103015 | 17 | 343 | 19.3 | 48.3 | 0.00 | 0.00 | 0.00 | 54 | 1011.5 |
| 20260507101522 | 17 | 359 | 3.2 | 33.8 | 0.00 | 0.00 | 0.00 | 54 | 1011.6 |
| 20260507100027 | 17 | 359 | 6.4 | 32.2 | 0.00 | 0.00 | 0.00 | 53 | 1011.5 |
| 20260507094510 | 17 | 334 | 12.9 | 43.5 | 0.00 | 0.00 | 0.00 | 54 | 1011.5 |
| 20260507093008 | 17 | 336 | 9.7 | 35.4 | 0.00 | 0.00 | 0.00 | 55 | 1011.5 |
| 20260507091505 | 17 | 323 | 16.1 | 45.1 | 0.00 | 0.00 | 0.00 | 56 | 1011.4 |
| 20260507090006 | 17 | 351 | 1.6 | 25.7 | 0.00 | 0.00 | 0.00 | 57 | 1011.2 |
| 20260507084502 | 16 | 324 | 0.0 | 16.1 | 0.00 | 0.00 | 0.00 | 58 | 1011.0 |
| 20260507083059 | 16 | 327 | 1.6 | 29.0 | 0.00 | 0.00 | 0.00 | 57 | 1010.9 |
| 20260507081558 | 16 | 348 | 1.6 | 30.6 | 0.00 | 0.00 | 0.00 | 58 | 1010.5 |
| 20260507080057 | 16 | 312 | 24.1 | 49.9 | 0.00 | 0.00 | 0.00 | 58 | 1010.5 |
| 20260507074556 | 16 | 308 | 1.6 | 40.2 | 0.00 | 0.00 | 0.00 | 59 | 1010.7 |
| 20260507073058 | 16 | 294 | 4.8 | 27.4 | 0.00 | 0.00 | 0.00 | 61 | 1010.4 |
| 20260507071551 | 15 | 314 | 1.6 | 37.0 | 0.00 | 0.00 | 0.00 | 62 | 1010.1 |
| 20260507064547 | 15 | 323 | 24.1 | 51.5 | 0.00 | 0.00 | 0.00 | 63 | 1010.0 |
| 20260507063041 | 15 | 336 | 25.7 | 56.3 | 0.00 | 0.00 | 0.00 | 62 | 1010.1 |
| 20260507061540 | 15 | 334 | 6.4 | 37.0 | 0.00 | 0.00 | 0.00 | 63 | 1009.8 |
| 20260507060040 | 15 | 323 | 16.1 | 45.1 | 0.00 | 0.00 | 0.00 | 64 | 1009.7 |
| 20260507054539 | 15 | 329 | 3.2 | 51.5 | 0.00 | 0.00 | 0.00 | 64 | 1009.5 |
| 20260507053031 | 15 | 331 | 12.9 | 53.1 | 0.00 | 0.00 | 0.00 | 65 | 1009.3 |
| 20260507051528 | 15 | 329 | 24.1 | 61.2 | 0.00 | 0.00 | 0.00 | 64 | 1009.2 |
| 20260507050048 | 15 | 329 | 30.6 | 48.3 | 0.00 | 0.00 | 0.00 | 64 | 1008.9 |
| 20260507044523 | 14 | 337 | 29.0 | 45.1 | 0.00 | 0.00 | 0.00 | 64 | 1008.6 |
| 20260507043019 | 14 | 327 | 27.4 | 54.7 | 0.00 | 0.00 | 0.00 | 65 | 1008.3 |
| 20260507041514 | 14 | 341 | 35.4 | 59.5 | 0.00 | 0.00 | 0.00 | 64 | 1008.0 |
| 20260507040014 | 15 | 329 | 30.6 | 62.8 | 0.00 | 0.00 | 0.00 | 64 | 1008.0 |
| 20260507034511 | 15 | 304 | 30.6 | 61.2 | 0.00 | 0.00 | 0.00 | 65 | 1007.9 |
| 20260507033007 | 15 | 348 | 35.4 | 72.4 | 0.00 | 0.00 | 0.00 | 65 | 1007.9 |
| 20260507031506 | 15 | 322 | 25.7 | 66.0 | 0.00 | 0.00 | 0.00 | 65 | 1007.6 |
| 20260507030005 | 15 | 323 | 40.2 | 77.2 | 0.00 | 0.00 | 0.00 | 66 | 1007.5 |
| 20260507024600 | 15 | 340 | 41.8 | 69.2 | 0.00 | 0.00 | 0.00 | 66 | 1007.4 |
| 20260507023057 | 15 | 337 | 32.2 | 70.8 | 0.00 | 0.00 | 0.00 | 67 | 1007.3 |
| 20260507021604 | 15 | 347 | 24.1 | 66.0 | 0.00 | 0.00 | 0.00 | 67 | 1007.4 |
| 20260507020054 | 15 | 324 | 20.9 | 53.1 | 0.00 | 0.00 | 0.00 | 66 | 1007.3 |
| 20260507014556 | 15 | 344 | 29.0 | 49.9 | 0.00 | 0.00 | 0.00 | 66 | 1007.2 |
| 20260507013050 | 15 | 351 | 29.0 | 54.7 | 0.00 | 0.00 | 0.00 | 67 | 1007.2 |
| 20260507011555 | 16 | 319 | 33.8 | 67.6 | 0.00 | 0.00 | 0.00 | 67 | 1007.0 |
| 20260507010047 | 16 | 332 | 32.2 | 80.5 | 0.00 | 0.00 | 0.00 | 66 | 1006.9 |
| 20260507004545 | 16 | 342 | 37.0 | 72.4 | 0.00 | 0.00 | 0.00 | 65 | 1007.0 |
| 20260507003042 | 16 | 325 | 17.7 | 56.3 | 0.00 | 0.00 | 0.00 | 64 | 1006.8 |
| 20260507001540 | 16 | 353 | 37.0 | 67.6 | 0.00 | 0.00 | 0.00 | 64 | 1006.6 |
| 20260507000038 | 16 | 333 | 40.2 | 70.8 | 0.00 | 0.00 | 0.00 | 65 | 1006.5 |
| 20260506234548 | 16 | 344 | 37.0 | 78.9 | 0.00 | 0.00 | 0.00 | 66 | 1006.1 |
| 20260506233034 | 16 | 339 | 41.8 | 78.9 | 0.00 | 0.00 | 0.00 | 70 | 1006.3 |
| 20260506231532 | 16 | 321 | 35.4 | 66.0 | 0.00 | 0.00 | 0.00 | 70 | 1006.2 |
| 20260506230032 | 17 | 309 | 32.2 | 75.6 | 0.00 | 0.00 | 0.00 | 68 | 1006.1 |
| 20260506224527 | 17 | 319 | 11.3 | 46.7 | 0.00 | 0.00 | 0.00 | 67 | 1005.8 |
| 20260506223024 | 16 | 289 | 0.0 | 3.2 | 0.00 | 0.00 | 0.00 | 69 | 1005.6 |
| 20260506221523 | 16 | 290 | 0.0 | 0.0 | 0.00 | 0.00 | 0.00 | 69 | 1005.3 |
| 20260506220028 | 17 | 268 | 11.3 | 24.1 | 0.00 | 0.00 | 0.00 | 68 | 1004.9 |
| 20260506214517 | 17 | 217 | 1.6 | 24.1 | 0.00 | 0.00 | 0.00 | 66 | 1004.3 |
| 20260506213022 | 17 | 224 | 6.4 | 29.0 | 0.00 | 0.00 | 0.00 | 66 | 1004.0 |
| 20260506211516 | 17 | 220 | 8.0 | 30.6 | 0.00 | 0.00 | 0.00 | 66 | 1004.0 |
| 20260506210015 | 17 | 235 | 9.7 | 29.0 | 0.00 | 0.00 | 0.00 | 65 | 1003.7 |
| 20260506204515 | 18 | 213 | 17.7 | 38.6 | 0.00 | 0.00 | 0.00 | 65 | 1003.7 |
| 20260506203023 | 18 | 210 | 16.1 | 38.6 | 0.00 | 0.00 | 0.00 | 65 | 1003.7 |
| 20260506201514 | 18 | 192 | 12.9 | 37.0 | 0.00 | 0.00 | 0.00 | 63 | 1003.6 |
| 20260506200014 | 18 | 198 | 4.8 | 33.8 | 0.00 | 0.00 | 0.00 | 62 | 1003.6 |
| 20260506194513 | 19 | 206 | 22.5 | 48.3 | 0.00 | 0.00 | 0.00 | 61 | 1003.1 |
| 20260506193016 | 19 | 246 | 24.1 | 57.9 | 0.00 | 0.00 | 0.00 | 59 | 1002.9 |
| 20260506191512 | 19 | 213 | 30.6 | 67.6 | 0.00 | 0.00 | 0.00 | 59 | 1002.8 |
| 20260506190010 | 20 | 215 | 29.0 | 70.8 | 0.00 | 0.00 | 0.00 | 58 | 1002.8 |